Time;durP1;ratioP1;P1;durP2;ratioP2;P2;SDS_P1;SDS_P2;PMS_P1;PMS_P2;Temp;Humidity;BMP_temperature;BMP_pressure;BME280_temperature;BME280_humidity;BME280_pressure;Samples;Min_cycle;Max_cycle;Signal;HPM_P1;HPM_P2
2022/05/25 00:01:16;;;;;;;5.50;3.93;;;;;;;8.24;100.00;100413.44;5017571;28;20046;-81
2022/05/25 00:03:42;;;;;;;4.33;3.73;;;;;;;8.18;100.00;100424.06;4996916;28;20045;-80
2022/05/25 00:06:10;;;;;;;5.37;3.70;;;;;;;8.10;100.00;100425.94;4989885;28;20141;-80
2022/05/25 00:08:40;;;;;;;6.13;3.87;;;;;;;8.02;100.00;100433.91;5015051;28;20044;-80
2022/05/25 00:11:08;;;;;;;5.27;3.70;;;;;;;7.89;100.00;100430.56;5006290;28;20670;-79
2022/05/25 00:13:36;;;;;;;4.67;3.60;;;;;;;7.83;100.00;100437.69;5010122;28;20049;-79
2022/05/25 00:16:04;;;;;;;4.60;4.10;;;;;;;7.79;100.00;100436.84;5034802;23;20049;-79
2022/05/25 00:18:30;;;;;;;4.87;3.93;;;;;;;7.74;100.00;100445.72;4993885;28;20045;-78
2022/05/25 00:20:57;;;;;;;5.00;3.57;;;;;;;7.69;100.00;100448.38;4987782;28;20158;-79
2022/05/25 00:23:24;;;;;;;6.53;4.07;;;;;;;7.66;100.00;100453.69;4988575;28;20441;-78
2022/05/25 00:25:51;;;;;;;5.57;3.43;;;;;;;7.63;100.00;100445.81;5005486;28;20045;-78
2022/05/25 00:28:17;;;;;;;5.10;3.93;;;;;;;7.62;100.00;100444.06;4971695;28;20069;-79
2022/05/25 00:30:45;;;;;;;5.03;4.23;;;;;;;7.59;100.00;100452.00;5004578;28;21830;-78
2022/05/25 00:33:12;;;;;;;4.97;4.30;;;;;;;7.54;100.00;100452.03;4988437;28;20049;-78
2022/05/25 00:35:39;;;;;;;5.27;3.37;;;;;;;7.52;100.00;100464.34;4989082;28;20119;-78
2022/05/25 00:38:08;;;;;;;4.50;3.83;;;;;;;7.45;100.00;100462.66;5018155;28;20476;-78
2022/05/25 00:40:38;;;;;;;6.10;4.57;;;;;;;7.45;100.00;100461.81;4973587;28;20060;-79
2022/05/25 00:43:05;;;;;;;5.20;3.93;;;;;;;7.45;100.00;100460.03;4988526;28;20038;-78
2022/05/25 00:45:36;;;;;;;5.40;4.27;;;;;;;7.39;100.00;100470.59;4990181;28;20049;-79
2022/05/25 00:48:03;;;;;;;4.73;3.83;;;;;;;7.36;100.00;100470.66;4988252;28;20127;-79
2022/05/25 00:51:11;;;;;;;5.43;4.10;;;;;;;7.35;100.00;100474.16;4973116;28;20041;-78
2022/05/25 00:53:17;;;;;;;5.73;3.90;;;;;;;7.30;100.00;100484.72;5007195;28;20034;-78
2022/05/25 00:55:44;;;;;;;5.50;4.43;;;;;;;7.30;100.00;100483.84;4974519;28;20048;-79
2022/05/25 00:58:11;;;;;;;6.37;4.67;;;;;;;7.29;100.00;100482.97;4988659;28;20052;-78
2022/05/25 01:00:38;;;;;;;5.93;4.57;;;;;;;7.29;100.00;100496.13;4988986;28;20040;-79
2022/05/25 01:03:10;;;;;;;7.60;4.30;;;;;;;7.30;100.00;100486.47;5021118;28;20135;-79
2022/05/25 01:05:42;;;;;;;5.27;4.60;;;;;;;7.31;100.00;100490.84;5015611;28;20049;-79
2022/05/25 01:08:25;;;;;;;6.60;4.20;;;;;;;7.30;100.00;100491.72;5004693;28;20037;-79
2022/05/25 01:11:22;;;;;;;5.63;4.40;;;;;;;7.30;100.00;100496.97;5005475;28;20088;-79
2022/05/25 01:13:58;;;;;;;4.93;4.20;;;;;;;7.23;100.00;100493.56;5020667;28;20053;-79
2022/05/25 01:16:37;;;;;;;4.37;3.80;;;;;;;7.20;100.00;100493.56;4990583;28;20038;-78
2022/05/25 01:19:38;;;;;;;6.43;4.37;;;;;;;7.18;100.00;100499.75;5004573;28;20053;-78
2022/05/25 01:22:16;;;;;;;6.20;4.40;;;;;;;7.14;100.00;100504.13;5005192;28;20442;-80
2022/05/25 01:25:01;;;;;;;6.13;3.97;;;;;;;7.10;100.00;100514.69;4989478;28;20410;-78
2022/05/25 01:27:33;;;;;;;6.07;4.97;;;;;;;7.07;100.00;100504.22;5004692;28;20965;-79
2022/05/25 01:30:04;;;;;;;6.43;5.33;;;;;;;7.03;100.00;100503.38;5005696;28;20134;-78
2022/05/25 01:32:41;;;;;;;6.23;4.77;;;;;;;7.03;100.00;100490.22;4988701;28;21005;-78
2022/05/25 01:35:13;;;;;;;5.80;4.70;;;;;;;7.01;100.00;100485.00;5004547;28;20029;-78
2022/05/25 01:37:42;;;;;;;5.20;4.53;;;;;;;7.01;100.00;100471.00;4972500;28;20045;-79
2022/05/25 01:40:18;;;;;;;9.97;4.33;;;;;;;6.93;100.00;100472.81;4996972;28;20052;-79
2022/05/25 01:42:56;;;;;;;6.20;4.37;;;;;;;6.87;100.00;100478.13;4997152;28;20076;-79
2022/05/25 01:45:25;;;;;;;5.60;4.27;;;;;;;6.79;100.00;100475.53;5007676;28;20045;-79
2022/05/25 01:47:52;;;;;;;5.07;4.20;;;;;;;6.74;100.00;100478.22;4985262;28;20402;-79
2022/05/25 01:50:24;;;;;;;4.60;4.20;;;;;;;6.70;100.00;100476.50;4997898;28;20041;-79
2022/05/25 01:52:55;;;;;;;5.60;4.57;;;;;;;6.66;100.00;100482.66;4983991;28;20041;-79
2022/05/25 01:55:26;;;;;;;5.80;4.80;;;;;;;6.62;100.00;100480.94;4998382;28;20041;-79
2022/05/25 01:57:57;;;;;;;5.90;4.33;;;;;;;6.57;100.00;100474.00;5015160;28;20471;-78
2022/05/25 02:00:34;;;;;;;5.33;4.23;;;;;;;6.53;100.00;100475.75;5016457;28;20046;-78
2022/05/25 02:05:52;;;;;;;5.33;4.40;;;;;;;6.45;100.00;100467.06;4990025;28;20042;-78
2022/05/25 02:08:42;;;;;;;5.10;4.17;;;;;;;6.40;100.00;100482.84;5031445;28;20042;-79
2022/05/25 02:11:17;;;;;;;4.93;4.17;;;;;;;6.39;100.00;100488.06;5015434;28;20042;-79
2022/05/25 02:13:54;;;;;;;5.93;4.47;;;;;;;6.40;100.00;100497.72;4998109;28;20041;-79
2022/05/25 02:16:45;;;;;;;5.50;4.40;;;;;;;6.38;100.00;100495.09;5000458;28;20221;-79
2022/05/25 02:19:27;;;;;;;5.33;4.37;;;;;;;6.33;100.00;100494.25;5023658;28;20132;-80
2022/05/25 02:21:57;;;;;;;5.40;4.57;;;;;;;6.35;100.00;100495.09;5002684;28;20044;-80
2022/05/25 02:24:29;;;;;;;5.27;4.50;;;;;;;6.39;100.00;100496.84;4989916;28;20050;-80
2022/05/25 02:27:04;;;;;;;6.33;4.50;;;;;;;6.39;100.00;100498.56;5007389;28;20518;-80
2022/05/25 02:29:36;;;;;;;5.90;4.63;;;;;;;6.36;100.00;100503.84;4985622;28;20049;-79
2022/05/25 02:32:10;;;;;;;5.57;4.40;;;;;;;6.33;100.00;100498.63;5016789;28;20058;-79
2022/05/25 02:34:37;;;;;;;;;;;;;;;6.27;100.00;100493.41;5005254;28;20045;-80
2022/05/25 02:37:05;;;;;;;5.63;4.80;;;;;;;6.23;100.00;100500.44;5002147;28;20381;-78
2022/05/25 02:39:32;;;;;;;5.30;4.47;;;;;;;6.21;100.00;100502.19;5003743;28;20075;-78
2022/05/25 02:41:59;;;;;;;4.53;3.67;;;;;;;6.20;100.00;100506.56;5019453;28;20033;-80
2022/05/25 02:44:26;;;;;;;4.60;4.00;;;;;;;6.17;100.00;100516.19;5019642;28;20057;-79
2022/05/25 02:46:52;;;;;;;5.43;4.37;;;;;;;6.19;100.00;100515.31;5021148;28;20037;-80
2022/05/25 02:49:19;;;;;;;7.10;4.67;;;;;;;6.21;100.00;100529.28;5037022;28;20038;-80
2022/05/25 02:51:46;;;;;;;5.93;4.63;;;;;;;6.19;100.00;100530.19;4999915;28;20050;-78
2022/05/25 02:54:13;;;;;;;6.07;4.57;;;;;;;6.14;100.00;100530.22;5012117;28;20060;-78
2022/05/25 02:56:39;;;;;;;6.37;4.40;;;;;;;6.13;100.00;100535.44;4994929;28;20048;-79
2022/05/25 02:59:06;;;;;;;6.13;4.80;;;;;;;6.08;100.00;100525.00;5017922;28;20047;-78
2022/05/25 03:01:33;;;;;;;5.37;4.33;;;;;;;6.09;100.00;100534.59;5018911;28;20065;-78
2022/05/25 03:03:59;;;;;;;5.63;4.10;;;;;;;6.08;100.00;100548.59;5018405;28;20037;-80
2022/05/25 03:06:26;;;;;;;4.50;4.03;;;;;;;6.06;100.00;100545.09;4987412;28;20578;-78
2022/05/25 03:08:53;;;;;;;6.17;4.60;;;;;;;6.08;100.00;100550.34;5018041;28;20046;-80
2022/05/25 03:11:20;;;;;;;5.50;4.10;;;;;;;6.07;100.00;100549.47;5002972;28;20045;-79
2022/05/25 03:13:48;;;;;;;13.10;5.47;;;;;;;6.07;100.00;100548.59;5017516;28;20037;-80
2022/05/25 03:16:16;;;;;;;9.13;4.83;;;;;;;6.05;100.00;100558.19;4991214;28;20092;-79
2022/05/25 03:18:43;;;;;;;15.63;5.07;;;;;;;6.13;100.00;100557.28;4965951;28;20053;-80
2022/05/25 03:21:10;;;;;;;9.03;5.20;;;;;;;6.24;100.00;100559.03;4983389;28;20045;-80
2022/05/25 03:23:37;;;;;;;9.37;5.00;;;;;;;6.27;100.00;100554.63;4999325;28;20034;-78
2022/05/25 03:26:04;;;;;;;8.10;4.83;;;;;;;6.27;100.00;100548.50;4992260;28;20052;-80
2022/05/25 03:28:31;;;;;;;6.40;4.70;;;;;;;6.24;100.00;100557.28;4996845;28;20549;-79
2022/05/25 03:30:58;;;;;;;6.63;4.47;;;;;;;6.28;100.00;100553.75;4993150;28;20053;-79
2022/05/25 03:33:25;;;;;;;6.03;4.47;;;;;;;6.31;100.00;100559.00;5016169;28;20425;-80
2022/05/25 03:35:51;;;;;;;6.77;4.90;;;;;;;6.35;100.00;100568.56;4998673;28;20042;-79
2022/05/25 03:38:18;;;;;;;8.57;4.70;;;;;;;6.43;100.00;100568.53;4984553;28;20042;-79
2022/05/25 03:40:45;;;;;;;6.27;4.23;;;;;;;6.42;100.00;100572.06;5009671;28;20038;-78
2022/05/25 03:43:15;;;;;;;6.43;4.60;;;;;;;6.42;100.00;100572.91;5012455;28;20041;-79
2022/05/25 03:45:46;;;;;;;5.30;4.17;;;;;;;6.43;100.00;100576.41;5013707;28;20038;-78
2022/05/25 03:48:13;;;;;;;5.00;4.17;;;;;;;6.46;100.00;100581.63;4998900;28;20041;-79
2022/05/25 03:50:42;;;;;;;5.00;4.13;;;;;;;6.53;100.00;100585.97;5000793;28;20547;-79
2022/05/25 03:53:12;;;;;;;5.50;4.37;;;;;;;6.58;100.00;100584.22;4984843;28;20038;-78
2022/05/25 03:55:39;;;;;;;7.63;4.70;;;;;;;6.68;100.00;100585.03;4991881;28;20042;-79
2022/05/25 03:58:05;;;;;;;6.10;4.97;;;;;;;6.77;100.00;100577.09;5026639;28;20113;-78
2022/05/25 04:00:33;;;;;;;7.17;5.07;;;;;;;6.82;100.00;100577.09;4983131;28;20048;-78
2022/05/25 04:03:02;;;;;;;5.70;4.40;;;;;;;6.82;100.00;100582.34;5015367;28;20041;-78
2022/05/25 04:05:30;;;;;;;6.53;4.73;;;;;;;6.86;100.00;100574.41;5001340;28;20042;-79
2022/05/25 04:07:58;;;;;;;5.77;4.77;;;;;;;6.91;100.00;100566.50;5007969;28;20041;-79
2022/05/25 04:10:29;;;;;;;4.80;3.90;;;;;;;6.91;100.00;100579.66;5018354;28;20053;-78
2022/05/25 04:12:56;;;;;;;6.30;4.87;;;;;;;6.94;100.00;100579.59;4980054;28;20120;-78
2022/05/25 04:15:26;;;;;;;5.57;4.63;;;;;;;7.01;100.00;100584.81;5002325;28;20129;-78
2022/05/25 04:17:53;;;;;;;6.03;4.40;;;;;;;7.10;100.00;100585.63;4997791;28;20042;-77
2022/05/25 04:20:21;;;;;;;5.67;4.70;;;;;;;7.22;100.00;100586.38;5001143;28;20091;-78
2022/05/25 04:22:47;;;;;;;5.13;4.00;;;;;;;7.32;100.00;100603.84;4996270;28;20038;-79
2022/05/25 04:25:17;;;;;;;7.03;4.90;;;;;;;7.52;100.00;100600.19;4982487;28;20044;-79
2022/05/25 04:27:45;;;;;;;6.43;5.10;;;;;;;7.69;100.00;100600.03;4962875;28;20061;-78
2022/05/25 04:30:15;;;;;;;6.37;4.80;;;;;;;7.84;100.00;100610.38;5012256;28;20033;-79
2022/05/25 04:32:42;;;;;;;6.87;5.20;;;;;;;7.99;100.00;100609.34;5013041;28;20068;-78
2022/05/25 04:35:10;;;;;;;7.27;5.37;;;;;;;8.12;100.00;100606.56;4998544;28;20049;-78
2022/05/25 04:37:49;;;;;;;6.03;5.17;;;;;;;8.30;100.00;100608.09;4990752;28;20053;-79
2022/05/25 04:40:38;;;;;;;7.30;5.77;;;;;;;8.42;100.00;100604.50;5013055;28;20048;-77
2022/05/25 04:43:07;;;;;;;7.07;5.60;;;;;;;8.59;100.00;100604.28;5006621;28;20045;-78
2022/05/25 04:45:34;;;;;;;5.90;4.90;;;;;;;8.71;100.00;100599.72;4998288;28;20045;-80
2022/05/25 04:48:01;;;;;;;7.17;5.20;;;;;;;8.82;100.00;100602.19;4996920;28;20495;-78
2022/05/25 04:50:34;;;;;;;6.40;4.97;;;;;;;8.90;100.00;100589.78;4997533;28;20425;-78
2022/05/25 04:53:04;;;;;;;5.90;4.80;;;;;;;9.07;100.00;100588.66;5007073;28;20767;-78
2022/05/25 04:58:24;;;;;;;4.90;4.35;;;;;;;9.41;100.00;100602.16;5011965;28;20045;-78
2022/05/25 05:00:51;;;;;;;6.72;5.00;;;;;;;9.53;100.00;100615.16;4992597;28;20053;-77
2022/05/25 05:03:19;;;;;;;5.53;4.60;;;;;;;9.67;100.00;100610.53;4976595;28;20088;-77
2022/05/25 05:05:46;;;;;;;6.50;5.15;;;;;;;9.86;100.00;100605.78;5006849;28;20111;-77
2022/05/25 05:08:13;;;;;;;5.00;4.35;;;;;;;9.95;100.00;100604.75;4980689;28;20064;-78
2022/05/25 05:10:40;;;;;;;5.47;4.30;;;;;;;10.04;100.00;100600.16;5012753;28;20064;-77
2022/05/25 05:13:07;;;;;;;4.88;4.03;;;;;;;10.12;100.00;100602.66;4996996;28;20399;-77
2022/05/25 05:15:36;;;;;;;5.82;4.00;;;;;;;10.18;100.00;100601.66;5025804;28;20041;-77
2022/05/25 05:18:02;;;;;;;5.35;4.25;;;;;;;10.19;100.00;100606.91;5016830;28;20073;-77
2022/05/25 05:20:29;;;;;;;4.93;4.22;;;;;;;10.25;100.00;100608.56;4995989;28;20053;-76
2022/05/25 05:22:56;;;;;;;4.97;4.47;;;;;;;10.34;100.00;100605.75;4980847;28;20045;-78
2022/05/25 05:25:23;;;;;;;5.70;4.40;;;;;;;10.53;100.00;100604.47;4998029;28;20042;-79
2022/05/25 05:27:50;;;;;;;4.53;3.90;;;;;;;10.89;100.00;100605.44;4978833;28;20041;-80
2022/05/25 05:30:23;;;;;;;4.85;4.32;;;;;;;11.06;100.00;100597.13;4999744;28;20045;-78
2022/05/25 05:32:49;;;;;;;5.15;4.20;;;;;;;11.09;100.00;100599.69;5001123;28;20034;-77
2022/05/25 05:35:16;;;;;;;6.63;4.45;;;;;;;11.05;100.00;100600.69;5004387;28;20128;-79
2022/05/25 05:37:48;;;;;;;6.63;5.38;;;;;;;11.06;100.00;100597.13;5018031;28;20049;-77
2022/05/25 05:40:16;;;;;;;6.20;5.05;;;;;;;11.11;100.00;100603.19;5019982;28;20045;-79
2022/05/25 05:42:45;;;;;;;6.30;5.13;;;;;;;11.24;100.00;100604.63;5015581;28;20172;-80
2022/05/25 05:45:15;;;;;;;5.30;4.72;;;;;;;11.45;100.00;100608.53;5011831;28;20037;-80
2022/05/25 05:47:45;;;;;;;5.30;4.68;;;;;;;11.71;100.00;100607.00;5017265;28;20079;-80
2022/05/25 05:50:12;;;;;;;6.20;5.22;;;;;;;12.20;100.00;100611.88;5016995;28;20505;-79
2022/05/25 05:52:39;;;;;;;7.40;5.40;;;;;;;12.66;100.00;100619.34;4981138;28;20440;-78
2022/05/25 05:55:06;;;;;;;6.00;4.85;;;;;;;13.04;100.00;100614.69;5011707;28;20391;-80
2022/05/25 05:57:35;;;;;;;5.10;4.28;;;;;;;13.33;100.00;100616.44;5013484;28;20470;-80
2022/05/25 06:00:04;;;;;;;6.07;4.80;;;;;;;13.92;100.00;100618.00;5016229;28;20478;-78
2022/05/25 06:02:31;;;;;;;7.75;4.82;;;;;;;15.06;95.95;100618.22;4997868;28;20033;-79
2022/05/25 06:04:57;;;;;;;5.32;4.82;;;;;;;15.93;88.33;100601.28;4995282;28;20038;-78
2022/05/25 06:07:24;;;;;;;5.47;4.60;;;;;;;16.38;86.68;100610.84;4980848;28;20037;-77
2022/05/25 06:09:51;;;;;;;5.55;4.43;;;;;;;16.68;83.15;100621.91;5014674;28;20560;-78
2022/05/25 06:12:18;;;;;;;5.75;4.53;;;;;;;16.67;77.39;100617.53;5010386;28;20053;-77
2022/05/25 06:14:45;;;;;;;7.40;4.25;;;;;;;16.91;76.15;100619.09;5016510;28;20034;-78
2022/05/25 06:19:57;;;;;;;4.57;3.90;;;;;;;17.42;71.18;100617.50;5085112;23;20044;-78
2022/05/25 06:22:32;;;;;;;4.25;3.58;;;;;;;17.60;72.49;100616.56;4991562;28;20096;-78
2022/05/25 06:25:00;;;;;;;4.30;3.90;;;;;;;18.08;71.97;100625.75;4978129;28;20042;-79
2022/05/25 06:27:27;;;;;;;4.40;3.97;;;;;;;18.45;66.99;100621.97;5003295;28;20046;-79
2022/05/25 06:29:54;;;;;;;4.05;3.65;;;;;;;18.65;66.05;100622.69;5002929;28;20168;-79
2022/05/25 06:32:23;;;;;;;4.03;3.40;;;;;;;18.63;60.96;100621.94;4997312;28;20052;-79
2022/05/25 06:34:50;;;;;;;5.22;3.80;;;;;;;18.62;61.53;100622.88;4996078;28;20038;-79
2022/05/25 06:37:23;;;;;;;4.15;3.58;;;;;;;18.57;63.17;100621.31;4978506;28;20077;-79
2022/05/25 06:39:50;;;;;;;5.13;3.45;;;;;;;18.51;61.63;100629.69;4976577;28;20049;-78
2022/05/25 06:42:18;;;;;;;4.60;3.40;;;;;;;18.60;60.75;100627.47;4998845;28;20044;-79
2022/05/25 06:44:44;;;;;;;3.33;3.03;;;;;;;18.63;61.50;100640.66;5004996;28;20042;-79
2022/05/25 06:47:16;;;;;;;3.65;3.05;;;;;;;18.69;59.96;100638.56;4978869;28;20046;-79
2022/05/25 06:49:43;;;;;;;3.45;3.13;;;;;;;18.52;58.80;100641.25;4995443;28;20411;-79
2022/05/25 06:52:12;;;;;;;6.32;3.67;;;;;;;18.71;62.18;100635.78;4994756;28;20049;-78
2022/05/25 06:54:39;;;;;;;3.40;2.65;;;;;;;18.84;60.15;100643.06;5010766;28;20080;-78
2022/05/25 06:57:06;;;;;;;4.22;2.80;;;;;;;18.84;59.17;100640.41;4995694;28;20038;-79
2022/05/25 06:59:32;;;;;;;5.38;3.45;;;;;;;18.58;58.23;100638.22;5011859;28;20092;-78
2022/05/25 07:01:59;;;;;;;3.20;2.90;;;;;;;18.47;60.28;100643.28;5011027;28;20096;-79
2022/05/25 07:04:26;;;;;;;2.95;2.67;;;;;;;18.32;62.13;100646.78;4962275;28;20046;-79
2022/05/25 07:06:54;;;;;;;2.90;2.63;;;;;;;18.12;63.22;100650.50;4995604;28;20042;-78
2022/05/25 07:09:24;;;;;;;5.32;3.05;;;;;;;18.17;61.58;100656.50;5011100;28;20045;-79
2022/05/25 07:11:52;;;;;;;4.60;3.88;;;;;;;18.13;60.98;100653.09;4979148;28;20503;-79
2022/05/25 07:14:18;;;;;;;4.90;2.60;;;;;;;18.17;62.39;100660.03;4988425;28;20047;-80
2022/05/25 07:16:45;;;;;;;3.83;2.90;;;;;;;18.13;61.11;100652.22;4989000;28;20046;-80
2022/05/25 07:19:12;;;;;;;3.00;2.50;;;;;;;18.03;62.77;100650.97;4999028;28;20045;-81
2022/05/25 07:21:39;;;;;;;3.13;2.45;;;;;;;17.88;62.98;100655.28;5010445;28;20042;-81
2022/05/25 07:24:05;;;;;;;2.85;2.15;;;;;;;17.89;64.08;100665.91;5013659;28;20038;-81
2022/05/25 07:26:33;;;;;;;2.65;2.30;;;;;;;18.11;63.54;100664.81;5015295;28;20045;-80
2022/05/25 07:29:00;;;;;;;2.72;2.30;;;;;;;17.76;59.81;100670.16;5005582;28;20517;-79
2022/05/25 07:31:31;;;;;;;2.45;1.88;;;;;;;17.86;63.04;100666.06;4993149;28;20038;-79
2022/05/25 07:34:07;;;;;;;4.80;2.50;;;;;;;17.93;61.50;100661.28;4979001;28;20096;-80
2022/05/25 07:36:35;;;;;;;2.20;1.98;;;;;;;18.10;62.32;100668.44;4978311;28;20041;-80
2022/05/25 07:39:07;;;;;;;3.40;2.03;;;;;;;18.25;59.70;100675.69;4993558;28;20048;-80
2022/05/25 07:41:39;;;;;;;2.20;1.70;;;;;;;18.77;59.79;100667.56;5011229;28;20038;-80
2022/05/25 07:44:10;;;;;;;3.58;1.80;;;;;;;19.11;57.92;100669.25;4993117;28;20037;-80
2022/05/25 07:46:36;;;;;;;2.90;1.63;;;;;;;19.29;56.28;100673.59;4994494;28;20076;-80
2022/05/25 07:49:03;;;;;;;2.53;1.63;;;;;;;19.40;57.04;100667.59;4992944;28;20102;-80
2022/05/25 07:51:30;;;;;;;2.92;2.47;;;;;;;19.44;54.62;100671.84;4993991;28;20122;-79
2022/05/25 07:53:59;;;;;;;6.82;2.45;;;;;;;19.30;55.75;100678.00;4991693;28;20065;-80
2022/05/25 07:56:29;;;;;;;2.28;1.98;;;;;;;19.65;54.77;100673.31;4977624;28;20038;-80
2022/05/25 07:59:01;;;;;;;2.42;2.00;;;;;;;19.95;55.58;100669.81;4988803;28;20077;-80
2022/05/25 08:07:05;;;;;;;2.72;2.03;;;;;;;20.35;52.21;100687.06;5011651;28;20038;-80
2022/05/25 08:09:32;;;;;;;2.78;2.10;;;;;;;20.34;51.29;100682.63;4972253;28;20034;-80
2022/05/25 08:11:59;;;;;;;2.47;2.28;;;;;;;20.28;52.50;100680.34;5007546;28;20549;-79
2022/05/25 08:14:27;;;;;;;3.05;2.10;;;;;;;20.03;51.79;100683.63;5006049;28;20158;-80
2022/05/25 08:16:54;;;;;;;3.38;2.10;;;;;;;20.08;52.62;100681.53;5002720;28;20396;-80
2022/05/25 08:19:21;;;;;;;3.63;1.95;;;;;;;20.06;52.63;100683.44;4988637;28;20050;-80
2022/05/25 08:21:48;;;;;;;3.25;2.08;;;;;;;20.15;52.15;100684.72;4974324;28;20487;-80
2022/05/25 08:24:15;;;;;;;2.40;1.90;;;;;;;20.05;52.02;100692.44;4988879;28;20042;-80
2022/05/25 08:26:42;;;;;;;2.58;2.25;;;;;;;20.05;53.52;100689.75;4974376;28;20427;-80
2022/05/25 08:29:08;;;;;;;2.80;2.10;;;;;;;20.15;52.43;100680.22;4993270;28;20039;-79
2022/05/25 08:31:35;;;;;;;2.88;2.58;;;;;;;20.30;53.12;100690.97;5009300;28;20037;-80
2022/05/25 08:34:03;;;;;;;3.95;2.38;;;;;;;20.39;52.81;100683.22;4992260;28;20144;-80
2022/05/25 08:36:30;;;;;;;13.30;3.90;;;;;;;20.62;53.64;100679.19;4992091;28;20042;-80
2022/05/25 08:38:58;;;;;;;3.10;2.53;;;;;;;20.64;52.47;100685.31;5008266;28;20048;-79
2022/05/25 08:41:31;;;;;;;4.22;2.75;;;;;;;20.92;52.81;100688.94;5010416;28;20041;-80
2022/05/25 08:43:59;;;;;;;3.38;3.08;;;;;;;20.77;51.62;100678.22;5027157;28;20038;-80
2022/05/25 08:46:26;;;;;;;38.30;7.32;;;;;;;20.95;51.53;100676.22;5013137;28;20124;-80
2022/05/25 08:48:53;;;;;;;4.28;2.30;;;;;;;21.12;50.00;100683.19;5007860;28;20052;-79
2022/05/25 08:51:45;;;;;;;3.83;3.03;;;;;;;21.13;47.45;100684.91;4978758;28;20133;-80
2022/05/25 08:54:12;;;;;;;4.50;2.97;;;;;;;21.19;50.32;100692.59;5008394;28;20065;-80
2022/05/25 08:56:41;;;;;;;2.45;2.08;;;;;;;21.08;50.14;100695.06;5010411;28;20041;-80
2022/05/25 08:59:12;;;;;;;4.30;2.67;;;;;;;21.06;47.77;100697.00;4991985;28;20041;-80
2022/05/25 09:01:56;;;;;;;2.58;2.38;;;;;;;21.45;49.07;100693.63;4993140;28;20042;-80
2022/05/25 09:04:33;;;;;;;2.53;2.25;;;;;;;21.88;46.47;100697.03;4992232;28;20042;-80
2022/05/25 09:07:24;;;;;;;211.95;33.03;;;;;;;22.27;45.91;100691.75;4993744;28;20059;-80
2022/05/25 09:09:51;;;;;;;5.57;3.25;;;;;;;22.54;45.29;100689.00;4977390;28;20104;-80
2022/05/25 09:12:32;;;;;;;3.78;2.72;;;;;;;22.47;44.22;100692.09;4992318;28;20045;-80
2022/05/25 09:15:12;;;;;;;2.72;2.15;;;;;;;22.54;45.26;100678.22;4993013;28;20045;-81
2022/05/25 09:17:46;;;;;;;2.33;2.13;;;;;;;22.61;45.97;100688.44;4991773;28;20630;-79
2022/05/25 09:20:17;;;;;;;3.78;2.67;;;;;;;22.08;44.99;100676.00;4993447;28;20042;-79
2022/05/25 09:22:49;;;;;;;3.97;2.55;;;;;;;21.96;45.72;100687.56;4961052;28;20045;-79
2022/05/25 09:25:16;;;;;;;2.88;2.17;;;;;;;21.91;46.71;100691.44;4978296;28;20052;-79
2022/05/25 09:28:06;;;;;;;3.50;2.08;;;;;;;21.74;46.04;100683.63;4976732;28;20050;-79
2022/05/25 09:30:36;;;;;;;2.65;2.00;;;;;;;21.90;45.70;100680.78;4985321;28;20597;-79
2022/05/25 09:33:13;;;;;;;3.38;2.70;;;;;;;22.18;45.96;100687.84;4988946;28;20041;-79
2022/05/25 09:36:26;;;;;;;3.85;2.58;;;;;;;22.82;43.99;100687.91;4978431;28;20057;-80
2022/05/25 09:39:04;;;;;;;21.90;4.10;;;;;;;23.23;42.82;100688.53;4985091;28;20057;-79
2022/05/25 09:41:32;;;;;;;3.67;3.03;;;;;;;22.66;41.65;100680.03;4992514;28;20049;-79
2022/05/25 09:44:02;;;;;;;2.90;2.35;;;;;;;21.91;43.89;100685.19;4975300;28;20092;-78
2022/05/25 09:46:34;;;;;;;4.78;2.45;;;;;;;21.34;45.68;100680.00;5005657;28;20040;-78
2022/05/25 09:49:04;;;;;;;4.18;1.90;;;;;;;21.05;47.15;100693.47;4974545;28;20100;-79
2022/05/25 09:51:35;;;;;;;2.33;1.98;;;;;;;20.44;48.38;100691.91;4985384;28;20049;-79
2022/05/25 09:54:12;;;;;;;2.20;1.90;;;;;;;20.38;49.47;100694.06;5001279;28;20042;-79
2022/05/25 09:56:50;;;;;;;2.20;2.00;;;;;;;20.21;50.06;100687.03;5012957;28;20045;-79
2022/05/25 09:59:22;;;;;;;2.55;2.00;;;;;;;19.76;49.69;100685.22;4993330;28;20537;-78
2022/05/25 10:01:49;;;;;;;3.33;2.15;;;;;;;19.53;51.23;100678.50;4977575;28;20496;-79
2022/05/25 10:04:51;;;;;;;2.90;1.90;;;;;;;20.03;49.27;100678.28;4976298;28;20133;-79
2022/05/25 10:07:23;;;;;;;4.70;2.10;;;;;;;20.97;48.99;100681.47;4995287;28;20038;-79
2022/05/25 10:09:52;;;;;;;3.35;2.10;;;;;;;21.90;45.74;100668.19;5002057;28;20080;-80
2022/05/25 10:12:26;;;;;;;3.58;2.50;;;;;;;22.36;43.61;100675.81;4996373;28;20506;-80
2022/05/25 10:15:06;;;;;;;2.58;1.90;;;;;;;22.60;42.71;100675.09;4996614;28;20042;-80
2022/05/25 10:17:47;;;;;;;2.40;2.20;;;;;;;22.95;42.34;100667.22;4993891;28;20054;-80
2022/05/25 10:20:28;;;;;;;2.20;1.92;;;;;;;23.34;42.31;100668.00;4993528;28;20045;-81
2022/05/25 10:23:10;;;;;;;3.03;2.00;;;;;;;23.46;41.08;100659.03;5003621;28;20050;-81
2022/05/25 10:25:43;;;;;;;3.72;2.20;;;;;;;23.66;40.33;100663.81;4970076;28;20041;-81
2022/05/25 10:28:22;;;;;;;2.67;2.20;;;;;;;23.51;39.80;100659.53;4978779;28;20058;-80
2022/05/25 10:37:06;;;;;;;3.22;2.38;;;;;;;21.63;41.91;100660.16;5006531;28;20406;-82
2022/05/25 10:39:45;;;;;;;3.47;2.20;;;;;;;21.17;42.71;100654.19;4978188;28;20054;-80
2022/05/25 10:42:26;;;;;;;3.10;2.00;;;;;;;21.67;42.74;100643.78;5013499;28;20059;-79
2022/05/25 10:45:02;;;;;;;3.70;1.83;;;;;;;22.58;42.16;100650.09;5012712;28;20029;-81
2022/05/25 10:47:43;;;;;;;2.92;2.10;;;;;;;22.45;39.96;100648.28;4978147;28;20050;-81
2022/05/25 10:50:16;;;;;;;3.78;1.90;;;;;;;22.03;40.98;100645.81;4978964;28;20104;-80
2022/05/25 10:52:47;;;;;;;2.78;2.20;;;;;;;21.32;42.78;100658.59;4993994;28;20517;-80
2022/05/25 10:55:14;;;;;;;2.67;2.17;;;;;;;20.86;43.91;100646.38;4996160;28;20042;-81
2022/05/25 10:58:16;;;;;;;2.95;2.20;;;;;;;20.55;45.54;100648.31;4949843;28;20133;-82
2022/05/25 11:00:58;;;;;;;2.88;2.65;;;;;;;20.46;45.66;100648.88;4971623;28;20068;-81
2022/05/25 11:03:50;;;;;;;2.47;1.70;;;;;;;20.55;46.56;100653.66;5011564;28;20491;-81
2022/05/25 11:06:29;;;;;;;2.10;1.90;;;;;;;21.06;46.54;100652.19;4997954;28;20491;-81
2022/05/25 11:09:17;;;;;;;2.25;1.98;;;;;;;21.82;46.54;100650.84;4990888;28;20506;-81
2022/05/25 11:12:03;;;;;;;4.38;2.13;;;;;;;22.36;44.97;100656.97;4971400;28;20103;-81
2022/05/25 11:15:27;;;;;;;3.33;2.30;;;;;;;22.10;44.68;100649.84;4994295;28;20728;-81
2022/05/25 11:18:18;;;;;;;3.63;2.35;;;;;;;21.15;47.48;100657.94;4954223;28;20522;-80
2022/05/25 11:20:56;;;;;;;3.50;2.10;;;;;;;20.60;49.90;100659.63;4955292;28;20592;-80
2022/05/25 11:23:34;;;;;;;3.13;2.17;;;;;;;20.15;53.63;100652.53;4969895;28;20054;-80
2022/05/25 11:26:00;;;;;;;2.88;2.10;;;;;;;19.79;54.83;100655.59;4974376;28;20069;-79
2022/05/25 11:29:15;;;;;;;2.50;2.03;;;;;;;19.35;57.28;100646.47;4974029;28;20042;-80
2022/05/25 11:31:53;;;;;;;2.30;1.95;;;;;;;20.11;56.99;100643.81;4975772;28;20038;-80
2022/05/25 11:34:32;;;;;;;4.20;2.17;;;;;;;20.63;53.52;100646.00;4994072;28;20034;-80
2022/05/25 11:37:10;;;;;;;3.88;2.13;;;;;;;21.00;51.17;100636.47;4980558;28;20037;-80
2022/05/25 11:40:04;;;;;;;2.05;1.77;;;;;;;21.72;48.50;100631.78;4987516;28;20042;-80
2022/05/25 11:42:49;;;;;;;2.80;2.00;;;;;;;22.44;45.44;100627.69;5010907;28;20046;-80
2022/05/25 11:45:29;;;;;;;2.92;2.13;;;;;;;22.12;44.80;100629.09;5001832;28;20038;-80
2022/05/25 11:48:04;;;;;;;3.30;1.70;;;;;;;;;;4999329;28;20050;-80
2022/05/25 11:50:38;;;;;;;4.47;2.10;;;;;;;21.11;47.10;100633.13;4995772;28;20046;-80
2022/05/25 11:53:08;;;;;;;3.67;2.17;;;;;;;20.32;49.35;100632.72;5010206;28;20038;-80
2022/05/25 11:55:53;;;;;;;2.53;1.70;;;;;;;20.04;51.50;100634.41;4994778;28;20041;-80
2022/05/25 11:58:43;;;;;;;3.17;2.10;;;;;;;19.99;53.69;100641.84;5011853;28;20049;-79
2022/05/25 12:01:17;;;;;;;20.08;3.90;;;;;;;19.95;53.84;100634.97;4978480;28;20048;-80
2022/05/25 12:03:50;;;;;;;3.08;2.00;;;;;;;19.80;54.80;100644.75;4955069;28;20053;-80
2022/05/25 12:06:37;;;;;;;3.08;1.70;;;;;;;19.78;56.09;100648.50;4978295;28;20546;-80